Time;durP1;ratioP1;P1;durP2;ratioP2;P2;SDS_P1;SDS_P2;PMS_P1;PMS_P2;Temp;Humidity;BMP_temperature;BMP_pressure;BME280_temperature;BME280_humidity;BME280_pressure;Samples;Min_cycle;Max_cycle;Signal;HPM_P1;HPM_P2
2021/11/23 00:00:03;;;;;;;7.20;4.38;;;;;;;2.91;72.09;99314.56;5089388;28;20185;-69
2021/11/23 00:02:28;;;;;;;9.05;4.65;;;;;;;2.88;72.17;99304.16;5088684;28;20063;-69
2021/11/23 00:04:54;;;;;;;8.38;4.82;;;;;;;2.85;72.28;99310.06;5090129;28;20125;-69
2021/11/23 00:07:20;;;;;;;8.02;4.78;;;;;;;2.85;71.97;99304.66;5089307;28;20028;-70
2021/11/23 00:09:45;;;;;;;8.73;4.18;;;;;;;2.84;72.28;99314.63;5089396;28;20058;-70
2021/11/23 00:12:11;;;;;;;10.10;4.70;;;;;;;2.83;72.53;99315.69;5088689;28;20032;-70
2021/11/23 00:14:36;;;;;;;7.80;4.57;;;;;;;2.79;72.33;99311.78;5087962;28;20073;-70
2021/11/23 00:17:02;;;;;;;10.45;5.10;;;;;;;2.77;71.68;99309.31;5070165;28;20020;-70
2021/11/23 00:19:27;;;;;;;13.10;6.80;;;;;;;2.75;71.59;99310.56;5088436;28;20036;-70
2021/11/23 00:21:53;;;;;;;11.07;6.63;;;;;;;2.69;71.82;99323.13;5088487;28;20073;-70
2021/11/23 00:24:18;;;;;;;12.38;6.85;;;;;;;2.67;71.68;99317.09;5090989;28;20111;-70
2021/11/23 00:26:44;;;;;;;15.13;9.10;;;;;;;2.66;72.24;99312.75;5091006;28;20475;-70
2021/11/23 00:29:09;;;;;;;16.58;7.78;;;;;;;2.61;71.79;99312.56;5090265;28;20035;-70
2021/11/23 00:31:35;;;;;;;12.25;6.00;;;;;;;2.56;71.67;99323.25;5071375;28;20047;-70
2021/11/23 00:34:00;;;;;;;10.52;5.50;;;;;;;2.56;71.38;99320.53;5090720;28;20035;-70
2021/11/23 00:36:26;;;;;;;8.00;4.80;;;;;;;2.60;72.21;99327.16;5088667;28;20036;-70
2021/11/23 00:38:51;;;;;;;9.10;5.13;;;;;;;2.58;71.94;99318.44;5069010;28;20032;-70
2021/11/23 00:41:17;;;;;;;9.05;5.65;;;;;;;2.56;71.68;99334.91;5088922;28;20031;-70
2021/11/23 00:43:44;;;;;;;9.15;5.88;;;;;;;2.53;72.41;99333.47;5089057;28;20146;-70
2021/11/23 00:46:10;;;;;;;9.70;6.25;;;;;;;2.55;71.49;99335.13;5089587;28;20039;-71
2021/11/23 00:48:36;;;;;;;11.25;5.93;;;;;;;2.53;71.96;99333.47;5088465;28;20016;-71
2021/11/23 00:51:02;;;;;;;9.68;6.40;;;;;;;2.56;72.09;99340.34;5071518;28;20028;-71
2021/11/23 00:53:28;;;;;;;10.05;5.68;;;;;;;2.64;72.00;99340.06;5089995;28;20019;-71
2021/11/23 00:55:53;;;;;;;9.40;6.00;;;;;;;2.67;72.55;99342.28;5089317;28;20460;-70
2021/11/23 00:58:19;;;;;;;11.65;6.43;;;;;;;2.72;72.75;99338.94;5090070;28;20573;-70
2021/11/23 01:00:45;;;;;;;10.07;5.93;;;;;;;2.76;72.66;99334.72;5070570;28;20031;-70
2021/11/23 01:03:12;;;;;;;11.50;5.95;;;;;;;2.73;71.78;99343.31;5089418;28;20082;-70
2021/11/23 01:05:37;;;;;;;9.65;5.68;;;;;;;2.76;72.69;99350.16;5070732;28;20032;-71
2021/11/23 01:08:03;;;;;;;10.25;5.88;;;;;;;2.73;72.61;99345.16;5088354;28;20028;-70
2021/11/23 01:10:28;;;;;;;9.63;6.53;;;;;;;2.77;71.66;99351.81;5087102;28;20028;-70
2021/11/23 01:12:54;;;;;;;12.23;6.43;;;;;;;2.73;72.36;99351.44;5087843;28;20024;-71
2021/11/23 01:15:20;;;;;;;9.80;7.05;;;;;;;2.72;72.41;99344.34;5085977;28;20043;-70
2021/11/23 01:17:46;;;;;;;10.68;6.07;;;;;;;2.71;72.00;99349.97;5087668;28;20040;-70
2021/11/23 01:20:12;;;;;;;11.25;6.00;;;;;;;2.65;71.59;99349.00;5068588;28;20035;-70
2021/11/23 01:22:40;;;;;;;9.90;5.88;;;;;;;2.63;71.78;99351.09;5086147;28;20036;-70
2021/11/23 01:25:06;;;;;;;8.68;5.07;;;;;;;2.58;72.23;99351.78;5086670;28;20031;-71
2021/11/23 01:27:32;;;;;;;13.07;6.68;;;;;;;2.54;72.27;99355.97;5087044;28;20028;-70
2021/11/23 01:29:57;;;;;;;13.18;6.85;;;;;;;2.49;72.56;99347.69;5069412;28;20043;-70
2021/11/23 01:32:23;;;;;;;12.57;6.30;;;;;;;2.45;71.63;99344.56;5090715;28;20479;-70
2021/11/23 01:34:49;;;;;;;13.02;7.13;;;;;;;2.42;72.58;99346.91;5093486;28;20543;-70
2021/11/23 01:37:14;;;;;;;11.98;6.45;;;;;;;2.40;72.30;99343.59;5087175;28;20067;-70
2021/11/23 01:39:40;;;;;;;13.30;7.03;;;;;;;2.38;71.88;99346.53;5090537;28;20075;-71
2021/11/23 01:42:05;;;;;;;11.93;6.80;;;;;;;2.34;71.92;99345.31;5088424;28;20111;-70
2021/11/23 01:44:31;;;;;;;13.50;6.35;;;;;;;2.33;72.62;99338.22;5089187;28;20472;-70
2021/11/23 01:46:56;;;;;;;10.45;6.72;;;;;;;2.32;72.56;99337.38;5091714;28;20476;-69
2021/11/23 01:49:24;;;;;;;12.77;6.97;;;;;;;2.31;72.68;99340.34;5074653;28;20236;-70
2021/11/23 01:51:50;;;;;;;12.32;6.97;;;;;;;2.29;72.21;99340.53;5093196;28;20028;-70
2021/11/23 01:54:16;;;;;;;12.65;7.00;;;;;;;2.29;71.73;99337.81;5071824;28;20043;-70
2021/11/23 01:56:42;;;;;;;12.73;7.00;;;;;;;2.26;72.48;99342.88;5091742;28;20042;-70
2021/11/23 01:59:07;;;;;;;11.30;6.75;;;;;;;2.23;71.96;99338.72;5090675;28;20059;-70
2021/11/23 02:01:33;;;;;;;13.52;7.45;;;;;;;2.20;72.46;99337.28;5092152;28;20028;-69
2021/11/23 02:03:58;;;;;;;12.85;7.20;;;;;;;2.25;72.29;99338.50;5092153;28;20035;-69
2021/11/23 02:06:24;;;;;;;14.65;7.25;;;;;;;2.22;72.45;99348.72;5092455;28;20020;-70
2021/11/23 02:08:50;;;;;;;12.73;7.05;;;;;;;2.27;72.43;99344.53;5089295;28;20055;-71
2021/11/23 02:11:15;;;;;;;12.38;6.72;;;;;;;2.25;73.12;99342.03;5092861;28;20020;-70
2021/11/23 02:13:41;;;;;;;10.68;5.78;;;;;;;2.20;72.53;99339.97;5073824;28;20032;-70
2021/11/23 02:16:07;;;;;;;13.00;6.32;;;;;;;2.18;73.13;99331.25;5092463;28;20074;-71
2021/11/23 02:18:33;;;;;;;12.57;7.32;;;;;;;2.15;72.85;99339.00;5072031;28;20030;-71
2021/11/23 02:20:59;;;;;;;11.63;6.55;;;;;;;2.10;72.86;99336.94;5074710;28;20044;-71
2021/11/23 02:23:25;;;;;;;10.75;5.90;;;;;;;2.07;72.79;99338.22;5091574;28;20059;-71
2021/11/23 02:25:51;;;;;;;13.88;6.97;;;;;;;2.06;72.74;99350.06;5091553;28;20372;-68
2021/11/23 02:28:17;;;;;;;11.32;5.90;;;;;;;2.05;73.26;99334.88;5090694;28;20020;-68
2021/11/23 02:30:48;;;;;;;11.75;7.45;;;;;;;2.00;73.17;99337.41;5093681;28;20500;-69
2021/11/23 02:33:16;;;;;;;11.30;6.28;;;;;;;2.00;73.12;99344.72;5093500;28;20027;-68
2021/11/23 02:35:42;;;;;;;10.63;6.40;;;;;;;1.97;73.39;99345.97;5093573;28;20086;-69
2021/11/23 02:38:07;;;;;;;10.10;5.75;;;;;;;1.94;73.43;99346.41;5089481;28;20032;-68
2021/11/23 02:40:33;;;;;;;13.63;7.38;;;;;;;1.90;73.20;99345.16;5088129;28;20032;-69
2021/11/23 02:42:59;;;;;;;11.50;6.70;;;;;;;1.91;73.17;99352.25;5089914;28;20027;-69
2021/11/23 02:45:26;;;;;;;10.35;6.20;;;;;;;1.91;73.13;99349.53;5092348;28;20027;-69
2021/11/23 02:47:54;;;;;;;10.80;6.20;;;;;;;1.88;74.15;99345.41;5092080;28;20036;-68
2021/11/23 02:50:21;;;;;;;9.95;6.07;;;;;;;1.89;73.20;99347.06;5089825;28;20027;-69
2021/11/23 02:52:49;;;;;;;9.60;5.22;;;;;;;1.93;74.15;99356.41;5091506;28;20032;-69
2021/11/23 02:55:16;;;;;;;9.88;6.82;;;;;;;1.93;73.91;99358.25;5091247;28;20024;-69
2021/11/23 02:57:41;;;;;;;10.50;6.22;;;;;;;1.96;74.20;99360.53;5085914;28;20066;-69
2021/11/23 03:00:10;;;;;;;12.02;6.78;;;;;;;2.01;73.72;99362.63;5071843;28;20494;-69
2021/11/23 03:02:36;;;;;;;11.57;5.85;;;;;;;2.00;73.46;99369.88;5090180;28;20428;-70
2021/11/23 03:05:04;;;;;;;10.75;6.30;;;;;;;1.99;73.61;99365.53;5073784;28;20356;-69
2021/11/23 03:07:30;;;;;;;10.50;5.80;;;;;;;2.03;73.86;99366.75;5089217;28;20502;-70
2021/11/23 03:09:56;;;;;;;10.27;6.25;;;;;;;2.00;74.01;99375.28;5090761;28;20115;-69
2021/11/23 03:12:23;;;;;;;11.05;6.53;;;;;;;1.99;74.07;99370.94;5088910;28;20043;-69
2021/11/23 03:14:49;;;;;;;11.02;6.40;;;;;;;1.94;73.57;99373.44;5070989;28;20039;-69
2021/11/23 03:17:17;;;;;;;10.60;5.57;;;;;;;1.88;73.87;99382.44;5087492;28;20027;-68
2021/11/23 03:19:44;;;;;;;10.73;7.03;;;;;;;1.78;74.04;99385.63;5090007;28;20032;-70
2021/11/23 03:22:11;;;;;;;9.00;5.55;;;;;;;1.75;73.80;99391.44;5091321;28;20036;-70
2021/11/23 03:24:37;;;;;;;8.18;4.80;;;;;;;1.68;73.58;99396.06;5091860;28;20024;-71
2021/11/23 03:27:03;;;;;;;8.10;5.15;;;;;;;1.65;73.69;99389.22;5090973;28;20036;-69
2021/11/23 03:29:29;;;;;;;9.88;5.38;;;;;;;1.63;73.45;99392.13;5087075;28;20027;-67
2021/11/23 03:31:55;;;;;;;9.23;4.80;;;;;;;1.60;73.14;99387.16;5091933;28;20036;-67
2021/11/23 03:34:21;;;;;;;7.72;3.95;;;;;;;1.54;73.48;99388.00;5091651;28;20032;-68
2021/11/23 03:36:46;;;;;;;8.35;4.88;;;;;;;1.42;73.50;99392.41;5071465;28;20024;-67
2021/11/23 03:39:12;;;;;;;7.88;4.18;;;;;;;1.32;73.44;99391.00;5064607;28;20046;-68
2021/11/23 03:41:38;;;;;;;6.88;3.88;;;;;;;1.27;73.52;99387.28;5089347;28;20391;-68
2021/11/23 03:44:04;;;;;;;6.28;3.90;;;;;;;1.20;72.97;99387.31;5089366;28;20077;-68
2021/11/23 03:46:30;;;;;;;7.70;4.07;;;;;;;1.09;72.04;99391.47;5086216;28;20051;-68
2021/11/23 03:48:55;;;;;;;7.72;3.60;;;;;;;0.97;72.26;99391.28;5089034;28;20043;-67
2021/11/23 03:51:21;;;;;;;10.70;4.80;;;;;;;0.90;73.19;99387.75;5085891;28;20438;-68
2021/11/23 03:53:46;;;;;;;12.02;5.63;;;;;;;0.82;72.98;99382.56;5089164;28;20028;-68
2021/11/23 03:56:13;;;;;;;11.50;5.53;;;;;;;0.80;72.99;99390.06;5068399;28;20020;-67
2021/11/23 03:58:39;;;;;;;12.10;4.75;;;;;;;0.78;73.33;99397.56;5088598;28;20085;-68
2021/11/23 04:01:05;;;;;;;11.85;5.53;;;;;;;0.70;72.59;99393.16;5082494;28;20492;-67
2021/11/23 04:03:31;;;;;;;9.95;4.70;;;;;;;0.62;73.11;99394.22;5088329;28;20067;-68
2021/11/23 04:05:56;;;;;;;10.35;4.70;;;;;;;0.55;73.04;99396.94;5088907;28;20563;-67
2021/11/23 04:08:22;;;;;;;10.05;3.67;;;;;;;0.49;73.19;99397.75;5085251;28;20028;-68
2021/11/23 04:10:48;;;;;;;8.77;4.57;;;;;;;0.43;72.71;99398.56;5085186;28;20399;-68
2021/11/23 04:13:13;;;;;;;7.38;4.60;;;;;;;0.36;72.68;99401.28;5087092;28;20028;-68
2021/11/23 04:15:39;;;;;;;8.70;4.18;;;;;;;0.30;73.07;99399.41;5089664;28;20214;-67
2021/11/23 04:18:08;;;;;;;7.85;4.40;;;;;;;0.27;73.40;99407.91;5090184;28;20028;-67
2021/11/23 04:20:34;;;;;;;9.82;4.63;;;;;;;0.20;73.21;99410.59;5090851;28;20566;-68
2021/11/23 04:22:59;;;;;;;8.57;3.80;;;;;;;0.13;72.98;99407.06;5090909;28;20036;-68
2021/11/23 04:25:25;;;;;;;7.78;3.85;;;;;;;0.07;73.21;99415.97;5089523;28;20016;-67
2021/11/23 04:27:52;;;;;;;5.82;3.70;;;;;;;0.00;73.33;99410.56;5088604;28;20397;-67
2021/11/23 04:30:18;;;;;;;5.88;3.30;;;;;;;-0.02;73.29;99401.84;5090264;28;20495;-67
2021/11/23 04:32:43;;;;;;;5.88;3.50;;;;;;;-0.07;73.23;99398.91;5071697;28;20071;-68
2021/11/23 04:35:10;;;;;;;9.73;4.68;;;;;;;-0.11;73.02;99398.47;5088964;28;20020;-67
2021/11/23 04:37:35;;;;;;;35.58;12.45;;;;;;;-0.19;73.18;99399.50;5085454;28;20107;-67
2021/11/23 04:40:04;;;;;;;57.28;18.80;;;;;;;-0.20;73.79;99407.78;5089772;28;20443;-68
2021/11/23 04:42:29;;;;;;;19.90;8.55;;;;;;;-0.22;73.29;99405.28;5089835;28;20388;-67
2021/11/23 04:44:55;;;;;;;14.90;6.18;;;;;;;-0.27;73.52;99407.75;5088407;28;20020;-68
2021/11/23 04:47:20;;;;;;;15.65;5.28;;;;;;;-0.30;73.26;99402.78;5089448;28;20387;-67
2021/11/23 04:49:46;;;;;;;8.63;4.55;;;;;;;-0.35;72.97;99405.22;5088745;28;20488;-67
2021/11/23 04:52:11;;;;;;;7.65;3.70;;;;;;;-0.39;73.44;99409.38;5090211;28;20028;-67
2021/11/23 04:54:37;;;;;;;4.95;3.45;;;;;;;-0.41;73.16;99409.56;5090104;28;20056;-67
2021/11/23 04:57:03;;;;;;;6.60;3.92;;;;;;;-0.45;73.20;99408.31;5070955;28;20434;-67
2021/11/23 04:59:29;;;;;;;5.22;4.00;;;;;;;-0.51;73.21;99395.63;5089386;28;20036;-68
2021/11/23 05:01:54;;;;;;;9.70;5.40;;;;;;;-0.60;73.32;99390.41;5087403;28;20387;-67
2021/11/23 05:04:19;;;;;;;13.55;7.53;;;;;;;-0.64;73.57;99404.50;5070937;28;20090;-67
2021/11/23 05:06:45;;;;;;;16.42;8.85;;;;;;;-0.69;73.77;99394.31;5088101;28;20036;-67
2021/11/23 05:09:10;;;;;;;11.98;6.95;;;;;;;-0.72;73.73;99401.97;5090077;28;20046;-68
2021/11/23 05:11:39;;;;;;;10.88;6.88;;;;;;;-0.76;73.83;99415.00;5087282;28;20032;-68
2021/11/23 05:14:04;;;;;;;9.30;5.28;;;;;;;-0.82;73.76;99408.56;5089853;28;20114;-67
2021/11/23 05:16:30;;;;;;;9.07;4.35;;;;;;;-0.83;73.71;99412.28;5086019;28;20084;-67
2021/11/23 05:18:55;;;;;;;9.38;4.93;;;;;;;-0.86;73.88;99401.06;5088379;28;20031;-68
2021/11/23 05:21:21;;;;;;;8.68;4.32;;;;;;;-0.90;73.78;99406.03;5087789;28;20031;-68
2021/11/23 05:23:46;;;;;;;10.13;5.45;;;;;;;-0.95;74.00;99395.81;5088329;28;20067;-68
2021/11/23 05:26:11;;;;;;;9.93;6.57;;;;;;;-0.98;74.03;99398.09;5088292;28;20536;-68
2021/11/23 05:28:37;;;;;;;10.05;6.13;;;;;;;-1.03;74.29;99401.38;5086994;28;20028;-67
2021/11/23 05:31:02;;;;;;;9.02;5.63;;;;;;;-1.08;74.09;99406.53;5068369;28;20036;-67
2021/11/23 05:33:28;;;;;;;8.00;5.57;;;;;;;-1.13;73.97;99417.06;5089311;28;20468;-68
2021/11/23 05:35:53;;;;;;;11.45;5.25;;;;;;;-1.15;74.38;99421.78;5088886;28;20032;-68
2021/11/23 05:38:20;;;;;;;5.97;4.88;;;;;;;-1.19;74.48;99421.34;5089243;28;20025;-67
2021/11/23 05:40:46;;;;;;;9.40;3.63;;;;;;;-1.21;74.35;99420.69;5067742;28;20043;-67
2021/11/23 05:43:13;;;;;;;6.30;3.92;;;;;;;-1.25;74.28;99417.56;5089295;28;20030;-67
2021/11/23 05:45:39;;;;;;;7.97;4.35;;;;;;;-1.29;74.54;99424.38;5082668;28;20065;-67
2021/11/23 05:48:05;;;;;;;9.65;5.25;;;;;;;-1.30;74.47;99428.09;5070640;28;20055;-67
2021/11/23 05:50:31;;;;;;;8.55;5.07;;;;;;;-1.32;74.64;99424.75;5087308;28;20035;-67
2021/11/23 05:52:57;;;;;;;10.10;5.45;;;;;;;-1.33;74.57;99425.78;5089773;28;20028;-67
2021/11/23 05:55:23;;;;;;;12.75;5.35;;;;;;;-1.32;74.46;99426.63;5085251;28;20035;-67
2021/11/23 05:57:48;;;;;;;7.60;4.70;;;;;;;-1.33;74.68;99424.97;5089031;28;20033;-67
2021/11/23 06:00:14;;;;;;;10.85;5.20;;;;;;;-1.34;74.80;99429.50;5083873;28;20029;-66
2021/11/23 06:02:39;;;;;;;7.47;4.10;;;;;;;-1.33;74.91;99424.97;5074440;28;20024;-67
2021/11/23 06:05:06;;;;;;;10.13;4.90;;;;;;;-1.32;74.89;99422.06;5086265;28;20025;-67
2021/11/23 06:07:31;;;;;;;8.38;4.55;;;;;;;-1.31;74.50;99426.44;5087178;28;20048;-67
2021/11/23 06:09:57;;;;;;;10.73;4.70;;;;;;;-1.32;74.91;99424.75;5069906;28;20075;-68
2021/11/23 06:12:26;;;;;;;13.20;6.03;;;;;;;-1.32;74.79;99432.84;5089073;28;20058;-68
2021/11/23 06:14:52;;;;;;;11.20;5.83;;;;;;;-1.32;75.00;99427.47;5089129;28;20047;-67
2021/11/23 06:17:17;;;;;;;11.38;6.18;;;;;;;-1.32;75.11;99437.41;5089540;28;20032;-67
2021/11/23 06:19:42;;;;;;;13.88;6.45;;;;;;;-1.33;75.22;99435.75;5091866;28;20429;-68
2021/11/23 06:22:08;;;;;;;9.75;6.28;;;;;;;-1.35;75.25;99439.47;5091705;28;20028;-68
2021/11/23 06:24:34;;;;;;;11.23;5.57;;;;;;;-1.36;75.11;99434.25;5092710;28;20016;-67
2021/11/23 06:26:59;;;;;;;9.70;5.38;;;;;;;-1.39;75.13;99451.63;5093143;28;20121;-67
2021/11/23 06:29:25;;;;;;;11.18;5.15;;;;;;;-1.41;75.47;99445.59;5092446;28;20379;-68
2021/11/23 06:31:50;;;;;;;10.63;5.47;;;;;;;-1.42;75.13;99446.63;5092740;28;20492;-67
2021/11/23 06:34:15;;;;;;;9.18;5.57;;;;;;;-1.43;75.20;99449.53;5074325;28;20028;-68
2021/11/23 06:36:41;;;;;;;13.55;6.00;;;;;;;-1.44;75.50;99447.88;5091710;28;20066;-67
2021/11/23 06:39:07;;;;;;;12.05;6.68;;;;;;;-1.45;75.16;99454.28;5091264;28;20050;-68
2021/11/23 06:41:32;;;;;;;15.18;6.82;;;;;;;-1.44;75.19;99455.94;5074752;28;20032;-67
2021/11/23 06:44:02;;;;;;;8.07;5.30;;;;;;;-1.42;75.48;99459.25;5092155;28;20118;-67
2021/11/23 06:46:29;;;;;;;7.13;4.88;;;;;;;-1.38;74.98;99460.53;5091727;28;20151;-68
2021/11/23 06:48:55;;;;;;;8.45;4.95;;;;;;;-1.36;75.09;99462.00;5092486;28;20102;-67
2021/11/23 06:51:20;;;;;;;8.85;4.65;;;;;;;-1.34;74.88;99459.13;5089900;28;20445;-67
2021/11/23 06:53:45;;;;;;;12.27;6.75;;;;;;;-1.32;74.82;99458.94;5092025;28;20111;-67
2021/11/23 06:56:11;;;;;;;10.77;6.57;;;;;;;-1.29;74.36;99458.56;5091524;28;20097;-68
2021/11/23 06:58:36;;;;;;;10.25;5.57;;;;;;;-1.26;74.76;99458.16;5089326;28;20024;-67
2021/11/23 07:01:02;;;;;;;8.40;5.57;;;;;;;-1.25;74.72;99459.84;5091165;28;20447;-67
2021/11/23 07:03:28;;;;;;;8.45;5.07;;;;;;;-1.22;74.83;99460.25;5091747;28;20035;-68
2021/11/23 07:05:53;;;;;;;10.30;6.78;;;;;;;-1.18;74.63;99462.56;5091270;28;20479;-67
2021/11/23 07:08:18;;;;;;;14.18;9.27;;;;;;;-1.17;75.03;99456.97;5092008;28;20024;-67
2021/11/23 07:10:44;;;;;;;12.23;8.13;;;;;;;-1.14;74.69;99461.97;5090392;28;20100;-67
2021/11/23 07:13:10;;;;;;;13.60;8.13;;;;;;;-1.10;74.73;99463.25;5094546;28;20039;-66
2021/11/23 07:15:36;;;;;;;12.50;6.60;;;;;;;-1.07;74.38;99460.16;5090050;28;20032;-67
2021/11/23 07:18:02;;;;;;;9.23;6.45;;;;;;;-1.03;74.25;99457.94;5091885;28;20024;-67
2021/11/23 07:20:27;;;;;;;9.98;5.63;;;;;;;-0.98;74.31;99451.94;5088479;28;20028;-67
2021/11/23 07:22:53;;;;;;;10.40;5.97;;;;;;;-0.96;74.33;99448.03;5088252;28;20028;-66
2021/11/23 07:25:18;;;;;;;15.00;6.88;;;;;;;-0.91;74.27;99455.53;5089011;28;20039;-67
2021/11/23 07:27:44;;;;;;;15.20;6.57;;;;;;;-0.87;73.99;99454.09;5091877;28;20132;-66
2021/11/23 07:30:10;;;;;;;11.98;5.93;;;;;;;-0.81;74.30;99457.88;5072691;28;20044;-67
2021/11/23 07:32:36;;;;;;;13.90;5.95;;;;;;;-0.75;74.32;99455.19;5092261;28;20027;-68
2021/11/23 07:35:05;;;;;;;14.48;6.50;;;;;;;-0.71;74.16;99458.34;5092844;28;20024;-68
2021/11/23 07:37:36;;;;;;;14.07;6.80;;;;;;;-0.65;73.70;99457.56;5091333;28;20031;-68
2021/11/23 07:40:03;;;;;;;14.40;6.18;;;;;;;-0.60;74.14;99459.66;5085845;28;20315;-69
2021/11/23 07:42:29;;;;;;;13.90;7.00;;;;;;;-0.54;73.79;99463.41;5091868;28;20035;-68
2021/11/23 07:44:54;;;;;;;13.48;7.22;;;;;;;-0.49;73.58;99471.72;5088329;28;20039;-69
2021/11/23 07:47:19;;;;;;;15.38;6.68;;;;;;;-0.43;73.93;99470.13;5089932;28;20077;-68
2021/11/23 07:49:45;;;;;;;17.17;7.40;;;;;;;-0.37;73.68;99464.75;5090650;28;20036;-69
2021/11/23 07:52:14;;;;;;;14.48;7.15;;;;;;;-0.29;73.82;99471.00;5090755;28;20084;-67
2021/11/23 07:54:39;;;;;;;13.35;6.97;;;;;;;-0.23;73.44;99472.91;5089467;28;20035;-68
2021/11/23 07:57:05;;;;;;;13.95;6.35;;;;;;;-0.18;72.77;99471.28;5089855;28;20032;-66
2021/11/23 07:59:30;;;;;;;16.70;6.80;;;;;;;-0.12;73.20;99463.41;5090356;28;20036;-66
2021/11/23 08:01:55;;;;;;;12.50;6.18;;;;;;;-0.06;72.67;99473.41;5092046;28;20107;-67
2021/11/23 08:04:21;;;;;;;13.00;6.15;;;;;;;-0.02;72.71;99462.00;5092221;28;20526;-66
2021/11/23 08:06:46;;;;;;;15.88;6.63;;;;;;;0.06;72.78;99470.94;5086636;28;20349;-67
2021/11/23 08:09:12;;;;;;;14.25;6.10;;;;;;;0.10;72.14;99473.03;5087410;28;20468;-67
2021/11/23 08:11:37;;;;;;;13.05;5.80;;;;;;;0.17;72.72;99472.22;5091016;28;20051;-67
2021/11/23 08:14:03;;;;;;;15.75;7.15;;;;;;;0.23;71.64;99469.53;5090286;28;20024;-67
2021/11/23 08:16:28;;;;;;;15.48;6.70;;;;;;;0.31;71.42;99464.97;5089363;28;20032;-67
2021/11/23 08:18:54;;;;;;;13.60;6.38;;;;;;;0.35;71.69;99464.38;5090108;28;20107;-67
2021/11/23 08:21:19;;;;;;;11.43;5.32;;;;;;;0.42;71.63;99465.19;5090354;28;20055;-67
2021/11/23 08:23:46;;;;;;;12.52;5.35;;;;;;;0.50;71.60;99463.34;5088575;28;20047;-67
2021/11/23 08:26:11;;;;;;;15.45;6.15;;;;;;;0.59;71.08;99470.22;5089268;28;20056;-68
2021/11/23 08:28:38;;;;;;;16.15;6.15;;;;;;;0.66;70.67;99470.22;5088541;28;20059;-68
2021/11/23 08:31:04;;;;;;;13.73;6.18;;;;;;;0.71;68.34;99473.13;5087454;28;20487;-66
2021/11/23 08:33:30;;;;;;;13.35;6.47;;;;;;;0.77;68.79;99466.09;5088119;28;20073;-66
2021/11/23 08:35:55;;;;;;;11.13;5.63;;;;;;;0.81;69.19;99467.34;5089305;28;20051;-68
2021/11/23 08:38:21;;;;;;;20.80;8.85;;;;;;;0.86;68.60;99467.53;5088895;28;20028;-67
2021/11/23 08:40:46;;;;;;;16.38;6.82;;;;;;;0.94;67.65;99471.91;5088651;28;20144;-65
2021/11/23 08:43:12;;;;;;;13.40;6.30;;;;;;;0.96;67.37;99461.75;5088602;28;20043;-66
2021/11/23 08:45:39;;;;;;;11.77;4.80;;;;;;;1.01;67.83;99461.94;5090277;28;20441;-67
2021/11/23 08:48:05;;;;;;;10.18;4.65;;;;;;;1.05;66.44;99457.75;5072207;28;20043;-68
2021/11/23 08:50:32;;;;;;;8.73;3.83;;;;;;;1.11;66.88;99462.34;5073810;28;20036;-67
2021/11/23 08:53:02;;;;;;;9.63;4.20;;;;;;;1.15;65.68;99452.75;5084334;28;20031;-68
2021/11/23 08:55:28;;;;;;;10.55;3.72;;;;;;;1.18;63.93;99452.34;5091657;28;20031;-69
2021/11/23 08:57:54;;;;;;;8.93;3.55;;;;;;;1.23;64.54;99454.41;5088743;28;20484;-68
2021/11/23 09:00:21;;;;;;;10.73;4.47;;;;;;;1.27;64.91;99454.84;5088464;28;20046;-67
2021/11/23 09:02:49;;;;;;;10.52;3.90;;;;;;;1.31;63.60;99456.09;5089115;28;20488;-67
2021/11/23 09:05:17;;;;;;;11.98;4.20;;;;;;;1.38;64.91;99459.59;5089967;28;20089;-68
2021/11/23 09:07:43;;;;;;;10.73;4.43;;;;;;;1.43;63.87;99469.78;5089345;28;20388;-67
2021/11/23 09:10:16;;;;;;;10.00;4.93;;;;;;;1.46;63.23;99464.75;5087933;28;20077;-67
2021/11/23 09:12:41;;;;;;;9.00;3.70;;;;;;;1.51;62.45;99457.88;5071291;28;20123;-67
2021/11/23 09:15:07;;;;;;;7.97;3.85;;;;;;;1.55;61.69;99453.72;5070491;28;20102;-67
2021/11/23 09:17:33;;;;;;;6.57;2.97;;;;;;;1.59;62.92;99454.97;5068938;28;20368;-67
2021/11/23 09:19:58;;;;;;;8.23;3.00;;;;;;;1.62;62.94;99446.44;5087256;28;20040;-68
2021/11/23 09:22:24;;;;;;;7.50;3.15;;;;;;;1.71;62.99;99455.97;5089482;28;20020;-67
2021/11/23 09:24:49;;;;;;;7.15;2.90;;;;;;;1.78;61.86;99450.53;5086101;28;20289;-67
2021/11/23 09:27:15;;;;;;;10.77;3.70;;;;;;;1.84;62.06;99448.81;5088853;28;20388;-70
2021/11/23 09:29:41;;;;;;;10.77;3.70;;;;;;;1.91;60.81;99446.94;5090363;28;20032;-67
2021/11/23 09:32:07;;;;;;;8.45;3.13;;;;;;;1.92;62.82;99437.78;5088371;28;20122;-68
2021/11/23 09:34:33;;;;;;;8.05;3.47;;;;;;;1.99;61.62;99451.28;5089958;28;20052;-68
2021/11/23 09:36:58;;;;;;;9.55;3.22;;;;;;;2.05;60.61;99443.13;5090003;28;20082;-68
2021/11/23 09:39:24;;;;;;;13.23;3.45;;;;;;;2.07;61.61;99441.03;5089633;28;20086;-66
2021/11/23 09:41:51;;;;;;;8.57;3.80;;;;;;;2.13;61.83;99444.75;5084784;28;20068;-67
2021/11/23 09:44:16;;;;;;;10.48;4.15;;;;;;;2.21;62.05;99446.38;5089885;28;20020;-67
2021/11/23 09:46:42;;;;;;;7.13;3.13;;;;;;;2.29;61.05;99445.28;5083943;28;20502;-67
2021/11/23 09:49:08;;;;;;;7.03;2.65;;;;;;;2.34;60.88;99443.56;5089131;28;20028;-67
2021/11/23 09:51:35;;;;;;;8.73;3.20;;;;;;;2.37;59.70;99445.84;5088677;28;20105;-68
2021/11/23 09:54:04;;;;;;;8.20;3.05;;;;;;;2.41;59.71;99450.84;5067428;28;20131;-69
2021/11/23 09:56:31;;;;;;;9.25;3.30;;;;;;;2.50;60.01;99460.38;5086555;28;20054;-66
2021/11/23 09:58:57;;;;;;;10.63;3.95;;;;;;;2.59;60.58;99456.34;5093512;28;20086;-68
2021/11/23 10:01:28;;;;;;;11.43;3.53;;;;;;;2.67;59.44;99455.25;5092617;28;20040;-67
2021/11/23 10:03:56;;;;;;;9.25;3.80;;;;;;;2.70;59.97;99454.81;5092434;28;20024;-68
2021/11/23 10:06:24;;;;;;;9.80;4.20;;;;;;;2.75;59.90;99446.00;5071101;28;20038;-67
2021/11/23 10:08:52;;;;;;;10.13;3.83;;;;;;;2.79;58.78;99433.69;5093378;28;20036;-68
2021/11/23 10:11:32;;;;;;;15.90;6.22;;;;;;;2.80;56.53;99427.22;5074851;28;20032;-68
2021/11/23 10:14:03;;;;;;;10.00;4.28;;;;;;;2.79;56.79;99420.13;5092601;28;20062;-69
2021/11/23 10:16:44;;;;;;;9.45;3.35;;;;;;;2.79;58.19;99422.84;5077836;28;20533;-70
2021/11/23 10:19:13;;;;;;;6.07;2.80;;;;;;;2.85;56.60;99421.16;5090124;28;20039;-68
2021/11/23 10:21:50;;;;;;;7.00;3.75;;;;;;;2.90;58.03;99414.00;5074112;28;20032;-67
2021/11/23 10:24:16;;;;;;;8.60;3.05;;;;;;;2.96;56.69;99413.13;5093134;28;20024;-67
2021/11/23 10:26:43;;;;;;;7.53;3.17;;;;;;;3.05;56.76;99415.56;5092096;28;20039;-68
2021/11/23 10:29:08;;;;;;;4.85;2.30;;;;;;;3.08;55.52;99418.63;5074370;28;20023;-68
2021/11/23 10:31:39;;;;;;;6.65;2.40;;;;;;;3.10;55.81;99413.81;5074359;28;20036;-67
2021/11/23 10:34:08;;;;;;;7.70;3.33;;;;;;;3.19;56.79;99417.06;5086943;28;20352;-68
2021/11/23 10:36:36;;;;;;;10.05;3.90;;;;;;;3.36;55.06;99408.34;5092194;28;20043;-67
2021/11/23 10:39:11;;;;;;;6.78;2.67;;;;;;;3.43;55.24;99418.06;5093140;28;20039;-67
2021/11/23 10:41:37;;;;;;;8.13;3.10;;;;;;;3.40;54.36;99421.22;5091788;28;20039;-67
2021/11/23 10:44:06;;;;;;;8.50;3.30;;;;;;;3.39;56.41;99422.28;5092428;28;20093;-68
2021/11/23 10:46:32;;;;;;;10.45;3.58;;;;;;;3.42;57.15;99416.41;5091102;28;20093;-67
2021/11/23 10:49:02;;;;;;;7.63;3.22;;;;;;;3.49;55.17;99419.03;5091845;28;20032;-67
2021/11/23 10:51:40;;;;;;;7.68;3.10;;;;;;;3.51;54.82;99406.06;5088447;28;20106;-67
2021/11/23 10:54:16;;;;;;;11.95;5.15;;;;;;;3.56;56.27;99400.78;5091682;28;20024;-68
2021/11/23 10:56:55;;;;;;;7.95;3.58;;;;;;;3.64;55.37;99385.28;5074060;28;20040;-68
2021/11/23 10:59:21;;;;;;;14.20;5.30;;;;;;;3.67;53.96;99391.06;5072116;28;20031;-68
2021/11/23 11:01:46;;;;;;;7.47;3.65;;;;;;;3.70;55.22;99381.66;5092678;28;20375;-67
2021/11/23 11:04:14;;;;;;;56.63;22.55;;;;;;;3.77;55.84;99378.84;5093053;28;20086;-67
2021/11/23 11:06:40;;;;;;;29.15;13.30;;;;;;;3.86;55.80;99378.31;5092315;28;20059;-67
2021/11/23 11:09:07;;;;;;;7.97;3.70;;;;;;;3.94;55.18;99379.03;5088250;28;20085;-68
2021/11/23 11:11:35;;;;;;;8.07;3.35;;;;;;;4.00;55.72;99386.25;5073084;28;20025;-68
2021/11/23 11:14:01;;;;;;;8.48;4.10;;;;;;;4.12;55.68;99394.44;5068190;28;20377;-68
2021/11/23 11:16:26;;;;;;;7.35;3.50;;;;;;;4.16;54.03;99390.22;5090772;28;20105;-69
2021/11/23 11:19:14;;;;;;;8.02;4.65;;;;;;;4.24;53.26;99386.38;5073933;28;20032;-68
2021/11/23 11:21:48;;;;;;;12.45;5.60;;;;;;;4.37;54.85;99380.72;5091484;28;20116;-67
2021/11/23 11:27:12;;;;;;;9.88;4.07;;;;;;;4.72;53.26;99379.13;5088383;28;20395;-67
2021/11/23 11:29:39;;;;;;;7.00;3.78;;;;;;;4.92;52.44;99367.91;5091761;28;20414;-68
2021/11/23 11:32:06;;;;;;;6.18;2.70;;;;;;;5.01;52.47;99365.66;5091828;28;20055;-69